Etusivu
METAR-TAF:

METAR-TAF

Lentoasemat :

Pagosa Springs, Colorado, Yhdysvallat

Leveyspiiri: 37-17-17N, Pituuspiiri: 107-03-18W, korkeus merenpinnasta: 2334 m

Tämänhetkinen sää

Tämä raportti tehtiin 13 minuuttia sitten, kello 17.35 UTC
Tuuli 3 kn etelästä
Lämpötila 7°C
Kosteus 31%
Ilmanpaine 1022 hPa
Näkyvyys: 16.1 km
selkeää

METAR: KPSO 131735Z AUTO 18003KT 10SM CLR 07/M09 A3017 RMK AO2 T00691089

Aika: 10:48 (17:48 UTC)


TAF: puuttuu

Säähavainnot ja -ennusteet yli 4000 lentoasemalta (METAR- ja TAF-raportit).

Käytössä olevat sääasemat on merkitty karttaan keltaisilla ja punaisilla pisteillä.

Aseta hiiri pisteen päälle nähdäksesi sääaseman nimen.

Klikkaa sitten nähdäksesi säähavainnot ja -ennusteet.

Kartan vaihtaminen: klikkaa mustalla rastilla varustettuja vihreitä pisteitä, niin voit zoomata sisään; viivalla varustettua vihreää pistettä, niin voit zoomata ulos tai vihreitä nuolia, niin pääset viereisille kartoille.


METAR-TAF: